Time;durP1;ratioP1;P1;durP2;ratioP2;P2;SDS_P1;SDS_P2;PMS_P1;PMS_P2;Temp;Humidity;BMP_temperature;BMP_pressure;BME280_temperature;BME280_humidity;BME280_pressure;Samples;Min_cycle;Max_cycle;Signal;HPM_P1;HPM_P2
2023/12/22 00:01:07;;;;;;;20.58;3.08;;;5.30;99.90;;;;;;5012821;28;20058;-85
2023/12/22 00:03:32;;;;;;;22.42;3.08;;;5.30;99.90;;;;;;5011936;28;20045;-83
2023/12/22 00:05:58;;;;;;;17.77;3.47;;;5.30;99.90;;;;;;5012481;28;20099;-84
2023/12/22 00:08:24;;;;;;;26.30;4.28;;;5.40;99.90;;;;;;5014027;28;20041;-83
2023/12/22 00:10:50;;;;;;;23.20;3.08;;;5.40;99.90;;;;;;5012554;28;20049;-84
2023/12/22 00:13:15;;;;;;;21.27;2.97;;;5.90;99.90;;;;;;5012776;28;20037;-84
2023/12/22 00:15:44;;;;;;;25.67;4.28;;;5.60;99.90;;;;;;5013897;28;20127;-83
2023/12/22 00:18:10;;;;;;;18.00;3.30;;;5.70;99.90;;;;;;5012599;28;20585;-84
2023/12/22 00:20:36;;;;;;;19.17;3.47;;;5.70;99.90;;;;;;5013684;28;20065;-83
2023/12/22 00:23:02;;;;;;;21.17;3.25;;;5.70;99.90;;;;;;5013426;28;20124;-82
2023/12/22 00:25:28;;;;;;;19.08;3.58;;;5.70;99.90;;;;;;5013598;28;20045;-84
2023/12/22 00:27:53;;;;;;;12.55;2.30;;;5.70;99.90;;;;;;5012052;28;20042;-82
2023/12/22 00:30:19;;;;;;;17.70;2.38;;;5.80;99.90;;;;;;5013164;28;20050;-83
2023/12/22 00:32:44;;;;;;;15.00;2.45;;;5.80;99.90;;;;;;5013357;28;20581;-83
2023/12/22 00:35:10;;;;;;;23.73;3.28;;;5.80;99.90;;;;;;5013434;28;20516;-84
2023/12/22 00:37:36;;;;;;;16.00;3.13;;;6.20;99.90;;;;;;5013304;28;20038;-83
2023/12/22 00:40:04;;;;;;;19.77;2.65;;;5.60;99.90;;;;;;5012412;28;20041;-84
2023/12/22 00:42:29;;;;;;;13.10;2.53;;;5.50;99.90;;;;;;5011194;28;20525;-83
2023/12/22 00:44:55;;;;;;;13.48;2.20;;;5.50;99.90;;;;;;5011029;28;20085;-83
2023/12/22 00:47:21;;;;;;;21.00;2.78;;;5.50;99.90;;;;;;5010964;28;20038;-85
2023/12/22 00:49:46;;;;;;;13.93;2.47;;;6.00;99.90;;;;;;4997903;28;20070;-84
2023/12/22 00:52:12;;;;;;;18.13;2.42;;;5.50;99.90;;;;;;4991313;28;20074;-83
2023/12/22 00:54:37;;;;;;;21.33;2.80;;;5.70;99.90;;;;;;4991843;28;20050;-84
2023/12/22 00:57:04;;;;;;;17.40;3.15;;;5.50;99.90;;;;;;4992564;28;20402;-83
2023/12/22 00:59:29;;;;;;;17.73;2.72;;;5.50;99.90;;;;;;4992157;28;20050;-83
2023/12/22 01:01:55;;;;;;;9.95;1.63;;;5.50;99.90;;;;;;4992469;28;20133;-84
2023/12/22 01:04:21;;;;;;;11.75;1.80;;;5.50;99.90;;;;;;5008848;28;20512;-84
2023/12/22 01:06:46;;;;;;;14.75;1.92;;;5.50;99.90;;;;;;5011924;28;20049;-83
2023/12/22 01:09:12;;;;;;;15.75;2.55;;;5.50;99.90;;;;;;5012036;28;20719;-83
2023/12/22 01:11:38;;;;;;;10.20;1.80;;;5.50;99.90;;;;;;5011101;28;20564;-83
2023/12/22 01:14:03;;;;;;;16.65;2.20;;;5.50;99.90;;;;;;5010884;28;20045;-84
2023/12/22 01:16:29;;;;;;;17.33;2.33;;;5.50;99.90;;;;;;5010786;28;20100;-84
2023/12/22 01:18:54;;;;;;;15.30;2.78;;;5.50;99.90;;;;;;5010881;28;20390;-84
2023/12/22 01:21:20;;;;;;;18.05;2.53;;;5.50;99.90;;;;;;5010676;28;20128;-84
2023/12/22 01:23:45;;;;;;;18.63;2.97;;;5.50;99.90;;;;;;5010596;28;20045;-84
2023/12/22 01:26:11;;;;;;;15.68;2.40;;;5.50;99.90;;;;;;5010891;28;20128;-83
2023/12/22 01:28:37;;;;;;;20.50;2.92;;;5.50;99.90;;;;;;5011665;28;20398;-83
2023/12/22 01:31:02;;;;;;;16.45;2.83;;;5.50;99.90;;;;;;5012046;28;20488;-83
2023/12/22 01:33:29;;;;;;;16.67;2.47;;;5.60;99.90;;;;;;5011258;28;20062;-83
2023/12/22 01:35:55;;;;;;;23.33;3.05;;;5.60;99.90;;;;;;4995521;28;20073;-83
2023/12/22 01:38:21;;;;;;;17.85;3.22;;;5.60;99.90;;;;;;5011826;28;20517;-84
2023/12/22 01:40:47;;;;;;;19.33;3.50;;;5.60;99.90;;;;;;5013648;28;20446;-83
2023/12/22 01:43:14;;;;;;;22.55;3.15;;;5.60;99.90;;;;;;5015128;28;20437;-83
2023/12/22 01:45:43;;;;;;;22.10;3.50;;;6.10;99.90;;;;;;5015473;28;20100;-84
2023/12/22 01:48:09;;;;;;;27.40;4.63;;;5.60;99.90;;;;;;5015232;28;20050;-83
2023/12/22 01:50:36;;;;;;;19.65;3.72;;;5.70;99.90;;;;;;5014963;28;20163;-82
2023/12/22 01:53:02;;;;;;;28.08;4.32;;;5.70;99.90;;;;;;5015394;28;20096;-84
2023/12/22 01:55:29;;;;;;;26.20;4.05;;;5.70;99.90;;;;;;5015083;28;20538;-84
2023/12/22 01:57:55;;;;;;;18.35;3.67;;;5.60;99.90;;;;;;5015292;28;20046;-84
2023/12/22 02:00:21;;;;;;;20.85;3.22;;;5.70;99.90;;;;;;5015319;28;20050;-81
2023/12/22 02:02:47;;;;;;;17.45;2.85;;;5.90;99.90;;;;;;5014739;28;20405;-83
2023/12/22 02:05:13;;;;;;;19.52;3.13;;;5.40;99.90;;;;;;5015262;28;20042;-83
2023/12/22 02:07:41;;;;;;;17.00;2.78;;;5.50;99.90;;;;;;5013850;28;20038;-83
2023/12/22 02:10:08;;;;;;;14.75;3.10;;;5.40;99.90;;;;;;5014976;28;20046;-84
2023/12/22 02:12:35;;;;;;;18.92;3.22;;;5.40;99.90;;;;;;5001408;28;20117;-83
2023/12/22 02:15:01;;;;;;;17.35;3.53;;;6.00;99.90;;;;;;5014651;28;20089;-84
2023/12/22 02:17:34;;;;;;;20.55;3.00;;;5.40;99.90;;;;;;5014660;28;20081;-83
2023/12/22 02:20:00;;;;;;;25.77;4.50;;;5.40;99.90;;;;;;5015065;28;20046;-83
2023/12/22 02:22:28;;;;;;;15.95;2.67;;;5.50;99.90;;;;;;5014799;28;20041;-84
2023/12/22 02:24:54;;;;;;;14.63;3.13;;;6.00;99.90;;;;;;5014845;28;20049;-82
2023/12/22 02:27:28;;;;;;;17.20;3.10;;;5.60;99.90;;;;;;5014332;28;20053;-83
2023/12/22 02:30:20;;;;;;;20.10;4.63;;;5.60;99.90;;;;;;5014953;28;20053;-83
2023/12/22 02:32:48;;;;;;;18.45;3.42;;;5.60;99.90;;;;;;4997250;28;20426;-84
2023/12/22 02:35:19;;;;;;;20.77;2.70;;;5.60;99.90;;;;;;5014600;28;20141;-84
2023/12/22 02:37:47;;;;;;;20.13;3.60;;;5.60;99.90;;;;;;5014839;28;20045;-83
2023/12/22 02:40:14;;;;;;;19.73;2.50;;;5.60;99.90;;;;;;5014732;28;20113;-82
2023/12/22 02:42:41;;;;;;;10.88;2.25;;;5.60;99.90;;;;;;5014544;28;20046;-83
2023/12/22 02:45:17;;;;;;;13.77;1.85;;;5.50;99.90;;;;;;5014648;28;20041;-83
2023/12/22 02:47:43;;;;;;;17.50;2.42;;;5.50;99.90;;;;;;5014401;28;20565;-84
2023/12/22 02:50:09;;;;;;;12.32;2.30;;;5.50;99.90;;;;;;5014433;28;20126;-83
2023/12/22 02:52:35;;;;;;;15.93;2.47;;;6.10;99.90;;;;;;5013463;28;20046;-83
2023/12/22 02:55:01;;;;;;;15.65;2.45;;;5.50;99.90;;;;;;5014445;28;20160;-84
2023/12/22 02:57:27;;;;;;;12.45;2.47;;;5.50;99.90;;;;;;5014307;28;20132;-84
2023/12/22 02:59:53;;;;;;;21.38;3.13;;;5.50;99.90;;;;;;5013786;28;20133;-84
2023/12/22 03:02:18;;;;;;;13.15;2.03;;;5.50;99.90;;;;;;5014288;28;20478;-83
2023/12/22 03:04:46;;;;;;;15.90;2.90;;;5.50;99.90;;;;;;5013718;28;20077;-83
2023/12/22 03:07:12;;;;;;;16.95;2.05;;;5.50;99.90;;;;;;5013872;28;20081;-83
2023/12/22 03:09:38;;;;;;;22.48;2.72;;;5.40;99.90;;;;;;5014165;28;20046;-83
2023/12/22 03:12:03;;;;;;;16.38;3.05;;;5.50;99.90;;;;;;5013745;28;20045;-83
2023/12/22 03:14:30;;;;;;;19.00;3.60;;;5.50;99.90;;;;;;5013653;28;20052;-84
2023/12/22 03:16:56;;;;;;;20.85;2.70;;;6.20;99.90;;;;;;5012637;28;20057;-83
2023/12/22 03:19:24;;;;;;;22.20;3.17;;;5.50;99.90;;;;;;5006767;28;20042;-83
2023/12/22 03:21:50;;;;;;;20.02;2.67;;;5.50;99.90;;;;;;5013420;28;20103;-83
2023/12/22 03:24:16;;;;;;;21.45;2.80;;;5.50;99.90;;;;;;5013308;28;20518;-83
2023/12/22 03:26:42;;;;;;;15.90;2.72;;;5.50;99.90;;;;;;5013435;28;20197;-82
2023/12/22 03:29:07;;;;;;;18.02;3.00;;;5.40;99.90;;;;;;5013276;28;20544;-83
2023/12/22 03:31:33;;;;;;;12.80;1.48;;;5.30;99.90;;;;;;5013383;28;20046;-83
2023/12/22 03:33:59;;;;;;;11.10;3.33;;;5.30;99.90;;;;;;5014561;28;20050;-83
2023/12/22 03:36:25;;;;;;;18.23;2.35;;;5.20;99.90;;;;;;5013649;28;20046;-84
2023/12/22 03:38:50;;;;;;;15.57;2.67;;;5.20;99.90;;;;;;4997234;28;20052;-83
2023/12/22 03:41:16;;;;;;;13.48;1.95;;;5.20;99.90;;;;;;5013400;28;20037;-83
2023/12/22 03:43:42;;;;;;;14.57;2.20;;;5.20;99.90;;;;;;5013199;28;20046;-83
2023/12/22 03:46:07;;;;;;;10.70;1.95;;;5.20;99.90;;;;;;5014309;28;20116;-83
2023/12/22 03:48:33;;;;;;;16.42;1.95;;;5.30;99.90;;;;;;5013308;28;20625;-83
2023/12/22 03:50:58;;;;;;;19.20;2.22;;;5.30;99.90;;;;;;5012720;28;20085;-82
2023/12/22 03:53:24;;;;;;;16.60;2.67;;;5.30;99.90;;;;;;5013194;28;20046;-84
2023/12/22 03:55:50;;;;;;;18.02;2.38;;;5.40;99.90;;;;;;5013110;28;20108;-83
2023/12/22 03:58:15;;;;;;;14.15;2.08;;;6.00;99.90;;;;;;5009528;28;20058;-83
2023/12/22 04:00:41;;;;;;;11.02;2.17;;;5.30;99.90;;;;;;5004375;28;20394;-84
2023/12/22 04:03:06;;;;;;;14.77;2.70;;;5.30;99.90;;;;;;5009767;28;20513;-83
2023/12/22 04:05:32;;;;;;;15.07;2.25;;;5.30;99.90;;;;;;4993551;28;20092;-83
2023/12/22 04:07:58;;;;;;;16.40;2.58;;;5.50;99.90;;;;;;4993203;28;20481;-83
2023/12/22 04:10:23;;;;;;;17.95;3.30;;;5.30;99.90;;;;;;4993295;28;20466;-84
2023/12/22 04:12:49;;;;;;;15.07;2.58;;;5.30;99.90;;;;;;4993155;28;20046;-84
2023/12/22 04:15:14;;;;;;;15.77;2.10;;;5.40;99.90;;;;;;4994594;28;20402;-84
2023/12/22 04:17:40;;;;;;;16.65;2.47;;;5.30;99.90;;;;;;4985835;28;20042;-83
2023/12/22 04:20:07;;;;;;;14.85;1.73;;;5.30;99.90;;;;;;5012642;28;20038;-83
2023/12/22 04:22:32;;;;;;;16.52;2.33;;;5.40;99.90;;;;;;5012459;28;20176;-83
2023/12/22 04:24:58;;;;;;;15.57;2.67;;;5.40;99.90;;;;;;5012511;28;20081;-83
2023/12/22 04:27:24;;;;;;;19.15;3.65;;;5.30;99.90;;;;;;5013645;28;20042;-83
2023/12/22 04:29:50;;;;;;;21.55;3.65;;;5.30;99.90;;;;;;5012328;28;20108;-84
2023/12/22 04:32:15;;;;;;;23.27;2.42;;;5.30;99.90;;;;;;5012166;28;20070;-83
2023/12/22 04:34:41;;;;;;;17.75;2.65;;;5.30;99.90;;;;;;5012536;28;20525;-83
2023/12/22 04:37:07;;;;;;;18.08;3.97;;;5.40;99.90;;;;;;5012438;28;20068;-83
2023/12/22 04:39:32;;;;;;;20.33;3.05;;;5.40;99.90;;;;;;5012447;28;20509;-83
2023/12/22 04:41:58;;;;;;;24.05;3.55;;;5.40;99.90;;;;;;5012126;28;20103;-84
2023/12/22 04:44:24;;;;;;;25.85;3.45;;;5.50;99.90;;;;;;5011943;28;20129;-84
2023/12/22 04:46:49;;;;;;;40.75;4.40;;;5.50;99.90;;;;;;5012486;28;20045;-83
2023/12/22 04:49:15;;;;;;;28.98;3.45;;;5.50;99.90;;;;;;5012147;28;20081;-83
2023/12/22 04:51:41;;;;;;;21.50;2.88;;;5.60;99.90;;;;;;5012139;28;20041;-83
2023/12/22 04:54:06;;;;;;;26.27;4.25;;;5.60;99.90;;;;;;5012101;28;20046;-83
2023/12/22 04:56:32;;;;;;;27.08;4.88;;;5.70;99.90;;;;;;5011704;28;20050;-83
2023/12/22 04:58:58;;;;;;;15.68;2.90;;;5.70;99.90;;;;;;5012308;28;20137;-83
2023/12/22 05:01:23;;;;;;;14.73;2.90;;;5.80;99.90;;;;;;5012278;28;20130;-83
2023/12/22 05:03:49;;;;;;;20.05;3.05;;;5.80;99.90;;;;;;5011858;28;20371;-83
2023/12/22 05:06:14;;;;;;;24.65;3.28;;;5.80;99.90;;;;;;5011847;28;20046;-83
2023/12/22 05:08:40;;;;;;;16.02;3.15;;;5.90;99.90;;;;;;5012290;28;20046;-83
2023/12/22 05:11:06;;;;;;;20.63;3.20;;;5.90;99.90;;;;;;5012333;28;20052;-83
2023/12/22 05:13:31;;;;;;;21.20;4.35;;;5.80;99.90;;;;;;5012023;28;20401;-83
2023/12/22 05:15:57;;;;;;;18.50;4.53;;;5.90;99.90;;;;;;5014561;28;20050;-83
2023/12/22 05:18:24;;;;;;;18.83;3.13;;;5.90;99.90;;;;;;5016114;28;20120;-83
2023/12/22 05:20:49;;;;;;;28.00;4.05;;;6.00;99.90;;;;;;5015895;28;20048;-83
2023/12/22 05:23:16;;;;;;;17.33;3.15;;;6.00;99.90;;;;;;5015879;28;20125;-84
2023/12/22 05:25:41;;;;;;;20.40;3.60;;;6.00;99.90;;;;;;5015822;28;20046;-83
2023/12/22 05:28:07;;;;;;;17.27;3.15;;;6.00;99.90;;;;;;5015603;28;20104;-83
2023/12/22 05:30:33;;;;;;;16.88;3.38;;;6.00;99.90;;;;;;5016813;28;20049;-84
2023/12/22 05:32:58;;;;;;;28.52;3.33;;;6.00;99.90;;;;;;5015176;28;20054;-84
2023/12/22 05:35:24;;;;;;;17.42;2.90;;;6.00;99.90;;;;;;5015773;28;20514;-83
2023/12/22 05:37:49;;;;;;;19.33;3.17;;;6.00;99.90;;;;;;5013056;28;20445;-83
2023/12/22 05:40:16;;;;;;;13.77;2.65;;;6.10;99.90;;;;;;5015389;28;20044;-83
2023/12/22 05:42:41;;;;;;;21.17;2.85;;;6.10;99.90;;;;;;5015386;28;20492;-83
2023/12/22 05:45:08;;;;;;;18.80;3.50;;;6.10;99.90;;;;;;5016707;28;20050;-84
2023/12/22 05:47:33;;;;;;;17.58;3.80;;;6.00;99.90;;;;;;5013991;28;20083;-83
2023/12/22 05:49:59;;;;;;;19.75;3.10;;;6.50;99.90;;;;;;5014139;28;20050;-83
2023/12/22 05:52:25;;;;;;;21.10;2.97;;;6.10;99.90;;;;;;5014058;28;20042;-83
2023/12/22 05:54:50;;;;;;;19.02;3.03;;;6.00;99.90;;;;;;5011555;28;20192;-83
2023/12/22 05:57:16;;;;;;;24.30;3.80;;;6.10;99.90;;;;;;5015394;28;20064;-83
2023/12/22 05:59:42;;;;;;;25.35;3.38;;;6.10;99.90;;;;;;5015327;28;20049;-83
2023/12/22 06:02:08;;;;;;;15.40;3.22;;;6.60;99.90;;;;;;5014982;28;20042;-83
2023/12/22 06:04:34;;;;;;;18.17;2.85;;;6.10;99.90;;;;;;5015271;28;20096;-83
2023/12/22 06:07:00;;;;;;;21.90;2.85;;;6.10;99.90;;;;;;4998692;28;20046;-83
2023/12/22 06:09:26;;;;;;;20.55;3.35;;;6.10;99.90;;;;;;5000812;28;20037;-82
2023/12/22 06:11:52;;;;;;;20.48;3.55;;;6.10;99.90;;;;;;4989476;28;20097;-83
2023/12/22 06:14:17;;;;;;;21.23;3.20;;;6.10;99.90;;;;;;5010181;28;20133;-83
2023/12/22 06:16:43;;;;;;;15.38;2.78;;;6.80;99.90;;;;;;5007445;28;20046;-85
2023/12/22 06:19:09;;;;;;;21.70;2.80;;;6.20;99.90;;;;;;5010386;28;20069;-83
2023/12/22 06:21:38;;;;;;;19.38;4.05;;;6.10;99.90;;;;;;5014627;28;20092;-84
2023/12/22 06:24:04;;;;;;;16.73;3.63;;;6.10;99.90;;;;;;5014122;28;20567;-83
2023/12/22 06:26:29;;;;;;;16.88;3.53;;;6.10;99.90;;;;;;5013898;28;20042;-83
2023/12/22 06:28:56;;;;;;;20.08;4.25;;;6.20;99.90;;;;;;5005480;28;20050;-83
2023/12/22 06:31:22;;;;;;;21.25;2.97;;;6.20;99.90;;;;;;5002869;28;20054;-82
2023/12/22 06:33:49;;;;;;;21.65;3.25;;;6.20;99.90;;;;;;4995892;28;20059;-83
2023/12/22 06:36:22;;;;;;;22.88;4.43;;;6.20;99.90;;;;;;4995122;28;20061;-82
2023/12/22 06:38:49;;;;;;;17.95;2.85;;;6.20;99.90;;;;;;5007287;28;20083;-82
2023/12/22 06:41:22;;;;;;;18.70;2.53;;;6.20;99.90;;;;;;4994360;28;20378;-83
2023/12/22 06:43:48;;;;;;;14.83;2.97;;;6.20;99.90;;;;;;5001664;28;20124;-84
2023/12/22 06:46:16;;;;;;;22.55;2.72;;;6.20;99.90;;;;;;4997742;28;20058;-82
2023/12/22 06:48:42;;;;;;;17.27;2.22;;;6.20;99.90;;;;;;5014061;28;20038;-83
2023/12/22 06:51:07;;;;;;;13.30;2.45;;;6.30;99.90;;;;;;5013866;28;20738;-83
2023/12/22 06:53:33;;;;;;;18.48;2.58;;;6.30;99.90;;;;;;5010129;28;20879;-84
2023/12/22 06:55:58;;;;;;;11.50;2.72;;;6.30;99.90;;;;;;5002042;28;20096;-83
2023/12/22 06:58:25;;;;;;;13.82;2.70;;;6.30;99.90;;;;;;5012967;28;20042;-83
2023/12/22 07:00:51;;;;;;;19.38;2.15;;;6.30;99.90;;;;;;5013999;28;20112;-83
2023/12/22 07:03:19;;;;;;;12.30;2.40;;;6.30;99.90;;;;;;5018078;28;20041;-82
2023/12/22 07:05:44;;;;;;;15.02;2.60;;;6.20;99.90;;;;;;5014239;28;20135;-83
2023/12/22 07:08:10;;;;;;;11.00;2.58;;;6.30;99.90;;;;;;5012899;28;20069;-82
2023/12/22 07:10:36;;;;;;;15.30;1.85;;;6.40;99.90;;;;;;5011431;28;20045;-84
2023/12/22 07:13:01;;;;;;;10.30;1.98;;;6.50;99.90;;;;;;5004203;28;20041;-82
2023/12/22 07:15:28;;;;;;;15.50;2.55;;;6.30;99.90;;;;;;5006234;28;20049;-84
2023/12/22 07:17:54;;;;;;;19.45;2.55;;;6.90;99.90;;;;;;4997006;28;20513;-83
2023/12/22 07:20:20;;;;;;;15.85;1.90;;;6.20;99.90;;;;;;5013399;28;20034;-82
2023/12/22 07:22:45;;;;;;;15.27;2.95;;;6.20;99.90;;;;;;5015931;28;20052;-82
2023/12/22 07:25:11;;;;;;;13.75;2.33;;;6.60;99.90;;;;;;5011168;28;20613;-82
2023/12/22 07:27:37;;;;;;;14.15;2.40;;;6.20;99.90;;;;;;5004806;28;20058;-85
2023/12/22 07:30:03;;;;;;;10.93;2.28;;;6.20;99.90;;;;;;4993597;28;20092;-86
2023/12/22 07:32:29;;;;;;;15.38;2.47;;;6.20;99.90;;;;;;5001429;28;20495;-84
2023/12/22 07:34:55;;;;;;;14.05;1.95;;;6.20;99.90;;;;;;5010175;28;20085;-83
2023/12/22 07:37:21;;;;;;;16.92;2.47;;;6.20;99.90;;;;;;5004835;28;20066;-82
2023/12/22 07:39:46;;;;;;;15.25;2.33;;;6.20;99.90;;;;;;5010356;28;20045;-84
2023/12/22 07:42:12;;;;;;;13.13;2.53;;;6.20;99.90;;;;;;4994094;28;20042;-84
2023/12/22 07:44:38;;;;;;;15.20;2.03;;;6.30;99.90;;;;;;5003159;28;20046;-84
2023/12/22 07:47:04;;;;;;;20.20;2.65;;;6.30;99.90;;;;;;5002514;28;20049;-85
2023/12/22 07:49:30;;;;;;;14.45;2.50;;;6.30;99.90;;;;;;5009131;28;20052;-83
2023/12/22 07:51:56;;;;;;;17.73;2.60;;;6.30;99.90;;;;;;5011408;28;20038;-83
2023/12/22 07:54:21;;;;;;;16.55;2.45;;;6.30;99.90;;;;;;5014291;28;20389;-83
2023/12/22 07:56:47;;;;;;;14.43;2.55;;;6.30;99.90;;;;;;5009064;28;20046;-84
2023/12/22 07:59:12;;;;;;;15.85;2.55;;;6.70;99.90;;;;;;5007737;28;20050;-84
2023/12/22 08:01:38;;;;;;;24.65;2.85;;;6.30;99.90;;;;;;5002969;28;20379;-83
2023/12/22 08:04:04;;;;;;;15.20;2.90;;;6.30;99.90;;;;;;5011426;28;20556;-83
2023/12/22 08:06:30;;;;;;;14.75;2.40;;;6.40;99.90;;;;;;5012916;28;20080;-81
2023/12/22 08:08:55;;;;;;;13.80;2.30;;;6.30;99.90;;;;;;5028626;28;20069;-86
2023/12/22 08:11:23;;;;;;;14.18;2.10;;;6.40;99.90;;;;;;5013007;28;20037;-83
2023/12/22 08:13:49;;;;;;;19.73;2.95;;;6.30;99.90;;;;;;4994695;28;20046;-83
2023/12/22 08:16:15;;;;;;;18.33;2.67;;;6.40;99.90;;;;;;5012286;28;20056;-83
2023/12/22 08:18:41;;;;;;;17.52;2.58;;;6.40;99.90;;;;;;5012458;28;20045;-83
2023/12/22 08:21:06;;;;;;;17.17;2.80;;;6.40;99.90;;;;;;5011942;28;20073;-84
2023/12/22 08:23:32;;;;;;;17.88;2.63;;;6.40;99.90;;;;;;5008162;28;20049;-83
2023/12/22 08:25:58;;;;;;;16.05;2.40;;;7.00;99.90;;;;;;5011494;28;20511;-83
2023/12/22 08:28:23;;;;;;;15.15;2.47;;;6.40;99.90;;;;;;5002529;28;20045;-84
2023/12/22 08:30:49;;;;;;;17.00;2.50;;;6.40;99.90;;;;;;5012220;28;20125;-83
2023/12/22 08:33:15;;;;;;;14.73;2.40;;;6.40;99.90;;;;;;5018443;28;20054;-83
2023/12/22 08:35:40;;;;;;;18.45;2.17;;;6.40;99.90;;;;;;5008637;28;20401;-83
2023/12/22 08:38:07;;;;;;;17.67;2.17;;;6.40;99.90;;;;;;4995984;28;20046;-83
2023/12/22 08:40:32;;;;;;;18.00;3.00;;;6.40;99.90;;;;;;5009474;28;20047;-83
2023/12/22 08:42:59;;;;;;;12.55;2.05;;;6.40;99.90;;;;;;5006794;28;20100;-83
2023/12/22 08:45:28;;;;;;;15.07;2.00;;;6.40;99.90;;;;;;5009521;28;20048;-83
2023/12/22 08:47:57;;;;;;;15.18;1.90;;;6.40;99.90;;;;;;5009783;28;20050;-83
2023/12/22 08:50:23;;;;;;;13.52;1.98;;;6.40;99.90;;;;;;5009768;28;20101;-85
2023/12/22 08:52:49;;;;;;;11.18;1.85;;;6.40;99.90;;;;;;5017261;28;20112;-84
2023/12/22 08:55:14;;;;;;;18.77;2.33;;;6.60;99.90;;;;;;5011867;28;20371;-83
2023/12/22 08:57:40;;;;;;;11.05;2.03;;;6.40;99.90;;;;;;5011605;28;20046;-83
2023/12/22 09:00:06;;;;;;;12.50;1.80;;;6.30;99.90;;;;;;5009818;28;20530;-84
2023/12/22 09:02:32;;;;;;;14.02;1.70;;;6.40;99.90;;;;;;5011132;28;20065;-83
2023/12/22 09:04:57;;;;;;;16.02;2.20;;;6.40;99.90;;;;;;4996671;28;20513;-84
2023/12/22 09:07:24;;;;;;;14.18;2.22;;;6.30;99.90;;;;;;5013405;28;20037;-83
2023/12/22 09:09:50;;;;;;;12.00;2.00;;;6.40;99.90;;;;;;5013023;28;20050;-84
2023/12/22 09:12:16;;;;;;;8.43;2.00;;;6.40;99.90;;;;;;5012187;28;20046;-86
2023/12/22 09:14:41;;;;;;;12.40;2.42;;;6.60;99.90;;;;;;4995812;28;20038;-87
2023/12/22 09:17:07;;;;;;;16.70;1.83;;;6.40;99.90;;;;;;5011678;28;20076;-86
2023/12/22 09:19:33;;;;;;;15.00;1.52;;;6.40;99.90;;;;;;5011317;28;20042;-86
2023/12/22 09:21:59;;;;;;;11.43;2.30;;;6.40;99.90;;;;;;5011211;28;20466;-85
2023/12/22 09:24:25;;;;;;;14.25;2.70;;;6.40;99.90;;;;;;5011658;28;20049;-85
2023/12/22 09:26:51;;;;;;;13.90;1.90;;;6.40;99.90;;;;;;5011765;28;20057;-85
2023/12/22 09:29:17;;;;;;;10.82;1.80;;;6.40;99.90;;;;;;5011855;28;20042;-86
2023/12/22 09:31:42;;;;;;;9.25;1.67;;;6.50;99.90;;;;;;5011865;28;20052;-86
2023/12/22 09:34:08;;;;;;;5.72;1.10;;;6.40;99.90;;;;;;5012273;28;20053;-87
2023/12/22 09:36:34;;;;;;;10.88;1.20;;;6.50;99.90;;;;;;5012011;28;20053;-84
2023/12/22 09:38:59;;;;;;;7.28;1.15;;;6.40;99.90;;;;;;5011613;28;20038;-86
2023/12/22 09:41:25;;;;;;;9.10;1.40;;;6.90;99.90;;;;;;5011048;28;20409;-84
2023/12/22 09:43:55;;;;;;;7.55;1.25;;;6.40;99.90;;;;;;5011588;28;20050;-85
2023/12/22 09:46:21;;;;;;;7.55;0.95;;;6.50;99.90;;;;;;5011736;28;20520;-85
2023/12/22 09:48:48;;;;;;;9.63;1.13;;;6.60;99.90;;;;;;5012444;28;20042;-85
2023/12/22 09:51:16;;;;;;;9.68;2.13;;;6.50;99.90;;;;;;5011330;28;20065;-86
2023/12/22 09:53:43;;;;;;;13.50;1.70;;;6.50;99.90;;;;;;5011566;28;20050;-86
2023/12/22 09:56:09;;;;;;;5.00;1.20;;;6.50;99.90;;;;;;5011927;28;20042;-85
2023/12/22 09:58:36;;;;;;;9.55;1.73;;;6.50;99.90;;;;;;5010289;28;20042;-86
2023/12/22 10:01:05;;;;;;;9.30;2.60;;;6.50;99.90;;;;;;5012209;28;20052;-86
2023/12/22 10:03:33;;;;;;;22.88;7.50;;;6.50;99.90;;;;;;5015013;28;20402;-85
2023/12/22 10:05:59;;;;;;;18.70;2.10;;;6.50;99.90;;;;;;5015452;28;20543;-86
2023/12/22 10:08:26;;;;;;;9.82;1.33;;;6.50;99.90;;;;;;5013864;28;20042;-84
2023/12/22 10:10:53;;;;;;;17.05;2.08;;;6.60;99.90;;;;;;5014747;28;20046;-86
2023/12/22 10:13:20;;;;;;;14.55;1.65;;;6.50;99.90;;;;;;5014679;28;20054;-86
2023/12/22 10:15:46;;;;;;;11.77;1.75;;;6.50;99.90;;;;;;5008810;28;20065;-85
2023/12/22 10:18:13;;;;;;;13.85;2.25;;;6.60;99.90;;;;;;5018638;28;20046;-84
2023/12/22 10:20:40;;;;;;;17.58;2.20;;;6.60;99.90;;;;;;5013961;28;20060;-85
2023/12/22 10:23:05;;;;;;;20.60;2.90;;;6.60;99.90;;;;;;5014149;28;20049;-85
2023/12/22 10:25:32;;;;;;;13.15;1.65;;;6.60;99.90;;;;;;5015662;28;20100;-83
2023/12/22 10:27:58;;;;;;;16.20;3.03;;;6.60;99.90;;;;;;5013671;28;20133;-84
2023/12/22 10:30:24;;;;;;;9.18;1.55;;;6.60;99.90;;;;;;5014835;28;20050;-85
2023/12/22 10:32:54;;;;;;;11.10;2.03;;;6.60;99.90;;;;;;5005690;28;20093;-83
2023/12/22 10:35:23;;;;;;;9.98;1.40;;;6.60;99.90;;;;;;5012658;28;20045;-85
2023/12/22 10:37:52;;;;;;;9.38;1.33;;;6.60;99.90;;;;;;5014752;28;20470;-83
2023/12/22 10:40:18;;;;;;;8.73;1.40;;;6.60;99.90;;;;;;5014898;28;20504;-84
2023/12/22 10:42:44;;;;;;;8.80;1.55;;;6.70;99.90;;;;;;5013553;28;20044;-85
2023/12/22 10:45:09;;;;;;;12.05;1.65;;;6.70;99.90;;;;;;5010867;28;20038;-85
2023/12/22 10:47:37;;;;;;;13.55;1.58;;;6.70;99.90;;;;;;5012045;28;20136;-84
2023/12/22 10:50:06;;;;;;;10.20;1.70;;;6.70;99.90;;;;;;5014900;28;20390;-84
2023/12/22 10:52:32;;;;;;;14.27;2.10;;;6.70;99.90;;;;;;5015056;28;20125;-84
2023/12/22 10:54:58;;;;;;;7.65;1.65;;;6.70;99.90;;;;;;5014511;28;20137;-83
2023/12/22 10:57:26;;;;;;;8.32;1.27;;;6.70;99.90;;;;;;5014129;28;20107;-82
2023/12/22 10:59:52;;;;;;;11.18;1.85;;;6.70;99.90;;;;;;5014836;28;20054;-82
2023/12/22 11:02:19;;;;;;;13.60;1.42;;;6.70;99.90;;;;;;5013909;28;20050;-82
2023/12/22 11:05:05;;;;;;;13.00;2.05;;;6.80;99.90;;;;;;5014024;28;20103;-83
2023/12/22 11:07:33;;;;;;;9.68;1.88;;;6.70;99.90;;;;;;5014940;28;20049;-82
2023/12/22 11:10:06;;;;;;;11.90;1.67;;;6.70;99.90;;;;;;5015137;28;20056;-83
2023/12/22 11:12:37;;;;;;;16.70;2.15;;;6.80;99.90;;;;;;5013666;28;20128;-84
2023/12/22 11:15:08;;;;;;;15.23;1.95;;;6.80;99.90;;;;;;4994728;28;20058;-82
2023/12/22 11:17:35;;;;;;;15.40;1.80;;;6.80;99.90;;;;;;4995317;28;20053;-82
2023/12/22 11:20:03;;;;;;;9.82;1.80;;;6.80;99.90;;;;;;4996441;28;20417;-84
2023/12/22 11:22:31;;;;;;;12.85;2.10;;;6.90;99.90;;;;;;5014857;28;20477;-82
2023/12/22 11:24:59;;;;;;;9.82;1.52;;;6.90;99.90;;;;;;5014441;28;20046;-81
2023/12/22 11:27:28;;;;;;;10.73;2.03;;;6.90;99.90;;;;;;5014418;28;20042;-84
2023/12/22 11:29:54;;;;;;;12.35;2.28;;;6.90;99.90;;;;;;5014077;28;20054;-81
2023/12/22 11:32:20;;;;;;;10.27;1.80;;;6.90;99.90;;;;;;5014168;28;20058;-82
2023/12/22 11:34:47;;;;;;;14.95;2.08;;;7.00;99.90;;;;;;5013605;28;20075;-82
2023/12/22 11:37:14;;;;;;;11.07;1.98;;;6.90;99.90;;;;;;5014450;28;20382;-82
2023/12/22 11:39:43;;;;;;;9.98;1.83;;;7.00;99.90;;;;;;5014317;28;20046;-82
2023/12/22 11:42:14;;;;;;;14.75;1.92;;;7.20;99.90;;;;;;5014107;28;20046;-82
2023/12/22 11:44:40;;;;;;;13.82;1.75;;;7.00;99.90;;;;;;5013709;28;20505;-81
2023/12/22 11:47:06;;;;;;;9.52;1.35;;;7.00;99.90;;;;;;5013196;28;20046;-83
2023/12/22 11:49:34;;;;;;;9.85;1.83;;;7.00;99.90;;;;;;5006745;28;20084;-82
2023/12/22 11:52:09;;;;;;;18.67;2.92;;;7.10;99.90;;;;;;5012021;28;20081;-81
2023/12/22 11:54:54;;;;;;;13.68;2.47;;;7.00;99.90;;;;;;5012747;28;20045;-83
2023/12/22 11:57:33;;;;;;;18.55;3.70;;;7.00;99.90;;;;;;5012560;28;20052;-83
2023/12/22 12:00:01;;;;;;;24.33;4.63;;;7.10;99.90;;;;;;5012436;28;20052;-82
2023/12/22 12:02:27;;;;;;;11.40;2.28;;;7.00;99.90;;;;;;5012784;28;20106;-83
2023/12/22 12:04:53;;;;;;;14.45;2.03;;;7.10;99.90;;;;;;5012353;28;20109;-83
2023/12/22 12:07:39;;;;;;;12.23;2.15;;;7.00;99.90;;;;;;5012211;28;20473;-81
2023/12/22 12:10:08;;;;;;;11.98;2.15;;;7.10;99.90;;;;;;5012381;28;20050;-82
2023/12/22 12:12:36;;;;;;;12.40;2.10;;;7.10;99.90;;;;;;5012006;28;20437;-83
2023/12/22 12:15:16;;;;;;;14.25;2.05;;;7.10;99.90;;;;;;5012293;28;20049;-82
2023/12/22 12:17:42;;;;;;;15.15;2.60;;;7.10;99.90;;;;;;5012841;28;20057;-82
2023/12/22 12:20:10;;;;;;;13.27;1.88;;;7.10;99.90;;;;;;5012023;28;20049;-81
2023/12/22 12:22:42;;;;;;;9.98;2.20;;;7.10;99.90;;;;;;5012313;28;20050;-84
2023/12/22 12:25:10;;;;;;;10.05;1.88;;;7.10;99.90;;;;;;5011870;28;20061;-86
2023/12/22 12:27:38;;;;;;;15.65;1.73;;;7.70;99.90;;;;;;4996237;28;20049;-83
2023/12/22 12:30:14;;;;;;;15.45;1.88;;;7.10;99.90;;;;;;5012179;28;20046;-82
2023/12/22 12:32:47;;;;;;;10.18;2.20;;;7.10;99.90;;;;;;5009970;28;20041;-83
2023/12/22 12:35:12;;;;;;;7.60;2.00;;;7.10;99.90;;;;;;5011513;28;20497;-83
2023/12/22 12:37:39;;;;;;;16.25;1.40;;;7.10;99.90;;;;;;5013213;28;20046;-82
2023/12/22 12:40:08;;;;;;;7.30;1.10;;;7.50;99.90;;;;;;5012852;28;20038;-82
2023/12/22 12:42:36;;;;;;;11.55;1.80;;;7.10;99.90;;;;;;5010336;28;20437;-83
2023/12/22 12:45:04;;;;;;;14.07;2.85;;;7.20;99.90;;;;;;5007687;28;20089;-82